Time;durP1;ratioP1;P1;durP2;ratioP2;P2;SDS_P1;SDS_P2;PMS_P1;PMS_P2;Temp;Humidity;BMP_temperature;BMP_pressure;BME280_temperature;BME280_humidity;BME280_pressure;Samples;Min_cycle;Max_cycle;Signal;HPM_P1;HPM_P2
2023/01/16 00:00:53;;;;;;;21.45;7.85;;;;;;;;;;5035278;28;20493;-71
2023/01/16 00:03:19;;;;;;;15.90;8.10;;;;;;;;;;5035604;28;20037;-71
2023/01/16 00:05:45;;;;;;;15.73;7.50;;;;;;;;;;5035421;28;20095;-71
2023/01/16 00:08:11;;;;;;;14.45;7.60;;;;;;;;;;5035484;28;20045;-71
2023/01/16 00:10:38;;;;;;;12.38;6.63;;;5.30;99.90;;;;;;5035174;28;20041;-71
2023/01/16 00:13:04;;;;;;;11.57;6.80;;;;;;;;;;5035317;28;20067;-70
2023/01/16 00:15:30;;;;;;;18.70;7.13;;;;;;;;;;5034902;28;20033;-71
2023/01/16 00:17:56;;;;;;;12.80;6.68;;;;;;;;;;5034996;28;20083;-71
2023/01/16 00:20:22;;;;;;;11.57;6.38;;;;;;;;;;5035139;28;20059;-71
2023/01/16 00:22:48;;;;;;;10.63;7.15;;;;;;;;;;5034850;28;20098;-71
2023/01/16 00:25:15;;;;;;;16.98;7.45;;;5.30;99.90;;;;;;5002944;28;20049;-71
2023/01/16 00:27:42;;;;;;;13.57;6.47;;;;;;;;;;5034954;28;20076;-71
2023/01/16 00:30:08;;;;;;;18.00;6.80;;;4.40;99.90;;;;;;5018273;28;20052;-70
2023/01/16 00:32:34;;;;;;;14.30;6.88;;;;;;;;;;5018231;28;20037;-70
2023/01/16 00:35:00;;;;;;;14.27;6.93;;;;;;;;;;5034674;28;20402;-70
2023/01/16 00:37:26;;;;;;;20.70;7.93;;;;;;;;;;5034582;28;20375;-71
2023/01/16 00:39:52;;;;;;;18.13;7.45;;;;;;;;;;5018012;28;20179;-70
2023/01/16 00:42:19;;;;;;;11.80;7.95;;;;;;;;;;5018323;28;20048;-70
2023/01/16 00:44:45;;;;;;;13.85;7.80;;;;;;;;;;5034788;28;20041;-71
2023/01/16 00:47:11;;;;;;;12.65;7.30;;;;;;;;;;5034270;28;20136;-71
2023/01/16 00:49:37;;;;;;;16.98;7.97;;;;;;;;;;5018204;28;20042;-71
2023/01/16 00:52:04;;;;;;;14.88;6.97;;;;;;;;;;5001609;28;20042;-70
2023/01/16 00:54:30;;;;;;;12.57;7.90;;;;;;;;;;5017957;28;20128;-70
2023/01/16 00:56:56;;;;;;;15.52;7.93;;;;;;;;;;5015946;28;20540;-71
2023/01/16 00:59:22;;;;;;;20.17;8.82;;;;;;;;;;5032030;28;20049;-71
2023/01/16 01:01:48;;;;;;;16.13;7.63;;;;;;;;;;5015282;28;20124;-70
2023/01/16 01:04:14;;;;;;;17.27;7.97;;;;;;;;;;5016709;28;20041;-71
2023/01/16 01:06:41;;;;;;;21.13;8.80;;;;;;;;;;5032800;28;20485;-71
2023/01/16 01:09:07;;;;;;;23.17;9.65;;;;;;;;;;5034336;28;20037;-71
2023/01/16 01:11:33;;;;;;;25.88;10.05;;;;;;;;;;5034324;28;20045;-70
2023/01/16 01:13:59;;;;;;;22.65;10.90;;;;;;;;;;5034286;28;20029;-70
2023/01/16 01:16:25;;;;;;;23.20;10.02;;;;;;;;;;5033921;28;20045;-70
2023/01/16 01:18:51;;;;;;;20.63;9.82;;;;;;;;;;5033826;28;20129;-70
2023/01/16 01:21:17;;;;;;;17.33;9.75;;;;;;;;;;5017680;28;20398;-70
2023/01/16 01:23:43;;;;;;;27.95;10.32;;;;;;;;;;5001427;28;20375;-70
2023/01/16 01:26:10;;;;;;;18.45;10.02;;;;;;;;;;5033990;28;20045;-70
2023/01/16 01:28:36;;;;;;;23.42;10.57;;;;;;;;;;5033986;28;20044;-73
2023/01/16 01:31:07;;;;;;;24.55;11.02;;;5.20;99.90;;;;;;5033581;28;20042;-71
2023/01/16 01:33:34;;;;;;;19.42;9.43;;;;;;;;;;5033757;28;20374;-73
2023/01/16 01:36:00;;;;;;;25.23;10.63;;;;;;;;;;5017076;28;20080;-70
2023/01/16 01:38:26;;;;;;;22.23;10.63;;;;;;;;;;5033576;28;20037;-71
2023/01/16 01:40:52;;;;;;;20.80;9.93;;;;;;;;;;5017047;28;20408;-71
2023/01/16 01:43:18;;;;;;;22.63;10.75;;;;;;;;;;5017235;28;20037;-71
2023/01/16 01:45:54;;;;;;;22.17;9.95;;;5.10;99.90;;;;;;5033463;28;20045;-71
2023/01/16 01:48:31;;;;;;;25.50;10.57;;;;;;;;;;5033079;28;20060;-71
2023/01/16 01:51:02;;;;;;;23.20;9.40;;;;;;;;;;5033241;28;20037;-71
2023/01/16 01:53:31;;;;;;;26.52;9.60;;;;;;;;;;5033270;28;20486;-71
2023/01/16 01:56:01;;;;;;;18.80;8.95;;;;;;;;;;5016721;28;20042;-71
2023/01/16 01:58:28;;;;;;;21.40;8.55;;;;;;;;;;5016594;28;20033;-71
2023/01/16 02:00:57;;;;;;;20.17;9.50;;;5.00;99.90;;;;;;5016598;28;20091;-71
2023/01/16 02:03:30;;;;;;;21.15;8.88;;;4.90;99.90;;;;;;5033338;28;20034;-71
2023/01/16 02:05:58;;;;;;;19.63;8.15;;;;;;;;;;5033081;28;20151;-72
2023/01/16 02:08:29;;;;;;;23.25;9.35;;;4.70;99.90;;;;;;5032829;28;20539;-71
2023/01/16 02:11:35;;;;;;;20.90;9.52;;;4.60;99.90;;;;;;5016637;28;20343;-71
2023/01/16 02:14:13;;;;;;;24.02;9.80;;;;;;;;;;5015943;28;20486;-71
2023/01/16 02:19:38;;;;;;;21.85;8.60;;;;;;;;;;5033115;28;20045;-71
2023/01/16 02:22:14;;;;;;;31.70;9.95;;;;;;;;;;5032849;28;20038;-71
2023/01/16 02:24:43;;;;;;;21.10;8.80;;;;;;;;;;5033863;28;20034;-71
2023/01/16 02:27:18;;;;;;;16.02;8.65;;;4.80;99.90;;;;;;5032514;28;20522;-71
2023/01/16 02:29:44;;;;;;;23.02;9.55;;;;;;;;;;5032393;28;20129;-70
2023/01/16 02:32:10;;;;;;;18.60;8.73;;;;;;;;;;5016033;28;20068;-71
2023/01/16 02:34:43;;;;;;;17.23;8.30;;;;;;;;;;5032775;28;20107;-71
2023/01/16 02:37:18;;;;;;;21.77;9.85;;;;;;;;;;5032589;28;20045;-71
2023/01/16 02:40:02;;;;;;;15.90;9.13;;;;;;;;;;5032558;28;20034;-71
2023/01/16 02:42:53;;;;;;;25.10;8.88;;;5.00;99.90;;;;;;5032599;28;20041;-71
2023/01/16 02:45:26;;;;;;;23.98;8.98;;;;;;;;;;5032313;28;20494;-71
2023/01/16 02:48:07;;;;;;;17.42;7.63;;;;;;;;;;5032015;28;20053;-71
2023/01/16 02:50:40;;;;;;;18.83;8.57;;;;;;;;;;5032523;28;20048;-71
2023/01/16 02:53:20;;;;;;;19.23;8.52;;;4.90;99.90;;;;;;5032118;28;20041;-71
2023/01/16 02:55:57;;;;;;;23.38;9.02;;;4.90;99.90;;;;;;5032228;28;20096;-71
2023/01/16 02:58:24;;;;;;;15.82;8.65;;;5.00;99.90;;;;;;5032011;28;20052;-71
2023/01/16 03:00:58;;;;;;;16.60;8.05;;;4.90;99.90;;;;;;5032270;28;20041;-71
2023/01/16 03:03:46;;;;;;;19.35;8.23;;;4.70;99.90;;;;;;5032385;28;20073;-71
2023/01/16 03:06:28;;;;;;;16.98;8.02;;;;;;;;;;5012348;28;20119;-71
2023/01/16 03:09:02;;;;;;;18.33;8.57;;;;;;;;;;5031993;28;20038;-71
2023/01/16 03:11:30;;;;;;;21.63;7.80;;;4.60;99.90;;;;;;5032109;28;20060;-71
2023/01/16 03:14:24;;;;;;;20.92;9.40;;;4.70;99.90;;;;;;5031819;28;20045;-71
2023/01/16 03:17:15;;;;;;;23.27;8.95;;;4.60;99.90;;;;;;5031838;28;20080;-71
2023/01/16 03:19:41;;;;;;;24.67;9.30;;;;;;;;;;5032113;28;20099;-71
2023/01/16 03:22:38;;;;;;;14.23;8.48;;;4.60;99.90;;;;;;5032039;28;20122;-71
2023/01/16 03:25:24;;;;;;;20.00;8.90;;;;;;;;;;5026266;28;20569;-71
2023/01/16 03:28:10;;;;;;;23.10;9.27;;;4.50;99.90;;;;;;5036160;28;20049;-71
2023/01/16 03:30:45;;;;;;;20.05;9.23;;;;;;;;;;5033721;28;20037;-71
2023/01/16 03:33:19;;;;;;;19.00;9.52;;;4.40;99.90;;;;;;5016304;28;20069;-71
2023/01/16 03:35:49;;;;;;;25.02;9.85;;;;;;;;;;5015934;28;20044;-71
2023/01/16 03:38:17;;;;;;;18.50;9.73;;;;;;;;;;5015879;28;20084;-71
2023/01/16 03:40:45;;;;;;;19.75;10.80;;;;;;;;;;5015916;28;20038;-71
2023/01/16 03:43:17;;;;;;;23.33;10.02;;;;;;;;;;5016138;28;20050;-71
2023/01/16 03:45:46;;;;;;;26.63;10.82;;;;;;;;;;5015615;28;20041;-71
2023/01/16 03:48:35;;;;;;;25.35;10.60;;;4.50;99.90;;;;;;5015535;28;20057;-71
2023/01/16 03:51:06;;;;;;;27.48;10.52;;;4.70;99.90;;;;;;5015819;28;20034;-71
2023/01/16 03:53:36;;;;;;;23.88;11.05;;;;;;;;;;5015960;28;20156;-71
2023/01/16 03:56:05;;;;;;;23.05;11.07;;;;;;;;;;5015634;28;20081;-71
2023/01/16 03:58:33;;;;;;;20.80;11.02;;;;;;;;;;5015535;28;20121;-71
2023/01/16 04:01:06;;;;;;;22.10;11.48;;;;;;;;;;5033512;28;20096;-71
2023/01/16 04:03:31;;;;;;;;;;;;;;;;;;5019097;28;20044;-71
2023/01/16 04:06:08;;;;;;;19.08;10.63;;;;;;;;;;5035126;28;19917;-71
2023/01/16 04:08:38;;;;;;;22.10;11.30;;;4.50;99.90;;;;;;5035083;28;20046;-71
2023/01/16 04:11:05;;;;;;;22.27;11.85;;;4.50;99.90;;;;;;5035040;28;20049;-71
2023/01/16 04:13:36;;;;;;;26.42;11.63;;;4.60;99.90;;;;;;5018635;28;20052;-71
2023/01/16 04:16:06;;;;;;;24.08;11.15;;;4.70;99.90;;;;;;5051746;28;20041;-71
2023/01/16 04:18:34;;;;;;;26.90;11.10;;;;;;;;;;5051730;28;20041;-71
2023/01/16 04:21:00;;;;;;;30.65;12.30;;;;;;;;;;5018683;28;20547;-71
2023/01/16 04:23:27;;;;;;;21.95;11.50;;;;;;;;;;5035285;28;20041;-71
2023/01/16 04:25:53;;;;;;;31.27;12.13;;;;;;;;;;5035421;28;20378;-71
2023/01/16 04:28:19;;;;;;;19.30;11.20;;;;;;;;;;5018480;28;20048;-71
2023/01/16 04:30:45;;;;;;;22.42;11.50;;;;;;;;;;5018251;28;20072;-71
2023/01/16 04:33:11;;;;;;;33.63;12.98;;;;;;;;;;5018304;28;20482;-71
2023/01/16 04:35:37;;;;;;;24.75;13.27;;;;;;;;;;5035171;28;20236;-71
2023/01/16 04:38:03;;;;;;;33.00;13.75;;;;;;;;;;5018138;28;20572;-71
2023/01/16 04:40:29;;;;;;;29.92;14.32;;;;;;;;;;5018182;28;20050;-70
2023/01/16 04:42:55;;;;;;;29.85;13.75;;;;;;;;;;5034558;28;20041;-70
2023/01/16 04:45:22;;;;;;;30.98;13.32;;;;;;;;;;5018031;28;20045;-71
2023/01/16 04:47:49;;;;;;;28.95;15.13;;;;;;;;;;5017828;28;20058;-70
2023/01/16 04:50:15;;;;;;;34.53;14.38;;;;;;;;;;5034935;28;20136;-71
2023/01/16 04:52:41;;;;;;;32.95;14.48;;;;;;;;;;5034515;28;20041;-71
2023/01/16 04:55:08;;;;;;;34.65;15.98;;;;;;;;;;5034361;28;20048;-71
2023/01/16 04:57:34;;;;;;;39.55;15.05;;;;;;;;;;5018000;28;20041;-71
2023/01/16 05:00:00;;;;;;;32.70;14.80;;;;;;;;;;5033965;28;20099;-71
2023/01/16 05:02:26;;;;;;;37.97;15.52;;;;;;;;;;5017812;28;20045;-71
2023/01/16 05:04:52;;;;;;;35.03;15.15;;;;;;;;;;5034260;28;20060;-70
2023/01/16 05:07:18;;;;;;;39.15;16.02;;;;;;;;;;5033993;28;20553;-70
2023/01/16 05:09:44;;;;;;;33.83;15.93;;;;;;;;;;5034010;28;20038;-71
2023/01/16 05:12:10;;;;;;;31.10;16.00;;;;;;;;;;5034094;28;20048;-71
2023/01/16 05:14:36;;;;;;;46.42;16.27;;;;;;;;;;5034028;28;20486;-71
2023/01/16 05:17:02;;;;;;;34.92;17.05;;;;;;;;;;5034134;28;20038;-71
2023/01/16 05:19:28;;;;;;;39.72;16.02;;;;;;;;;;5033801;28;20043;-72
2023/01/16 05:21:54;;;;;;;38.35;15.63;;;;;;;;;;5033722;28;20046;-70
2023/01/16 05:24:20;;;;;;;39.72;16.42;;;;;;;;;;5033671;28;20124;-73
2023/01/16 05:26:48;;;;;;;44.50;18.30;;;;;;;;;;5017481;28;20048;-73
2023/01/16 05:29:14;;;;;;;43.90;17.75;;;;;;;;;;5033750;28;20103;-70
2023/01/16 05:31:40;;;;;;;42.70;17.13;;;;;;;;;;5017089;28;20038;-70
2023/01/16 05:34:07;;;;;;;40.05;17.17;;;;;;;;;;5033631;28;20037;-70
2023/01/16 05:36:33;;;;;;;45.78;18.58;;;;;;;;;;5033503;28;20037;-70
2023/01/16 05:38:59;;;;;;;38.33;17.45;;;;;;;;;;5017132;28;20072;-72
2023/01/16 05:41:25;;;;;;;38.85;17.60;;;;;;;;;;5033451;28;20048;-70
2023/01/16 05:43:53;;;;;;;44.15;17.20;;;;;;;;;;5033567;28;20044;-70
2023/01/16 05:46:19;;;;;;;37.95;17.80;;;;;;;;;;5033130;28;20077;-77
2023/01/16 05:48:46;;;;;;;38.92;17.25;;;;;;;;;;5032830;28;20061;-77
2023/01/16 05:51:12;;;;;;;38.95;17.63;;;;;;;;;;5016696;28;20087;-75
2023/01/16 05:53:38;;;;;;;41.03;17.02;;;;;;;;;;5033562;28;20029;-77
2023/01/16 05:56:08;;;;;;;41.42;18.05;;;;;;;;;;5033300;28;20037;-77
2023/01/16 05:58:35;;;;;;;41.58;17.75;;;;;;;;;;5033341;28;20171;-74
2023/01/16 06:01:01;;;;;;;51.53;17.95;;;;;;;;;;5033426;28;20090;-75
2023/01/16 06:03:27;;;;;;;39.08;18.33;;;;;;;;;;5030918;28;20037;-70
2023/01/16 06:05:53;;;;;;;43.25;17.98;;;;;;;;;;5016731;28;20056;-71
2023/01/16 06:08:19;;;;;;;49.40;18.55;;;;;;;;;;5033081;28;20037;-70
2023/01/16 06:10:45;;;;;;;43.97;18.35;;;;;;;;;;5033713;28;20068;-70
2023/01/16 06:13:11;;;;;;;51.25;19.92;;;;;;;;;;5033304;28;20037;-71
2023/01/16 06:15:37;;;;;;;49.22;19.13;;;;;;;;;;5016602;28;20038;-70
2023/01/16 06:18:03;;;;;;;49.55;18.80;;;;;;;;;;5016426;28;20049;-71
2023/01/16 06:20:30;;;;;;;48.25;19.45;;;;;;;;;;5016057;28;20041;-71
2023/01/16 06:22:56;;;;;;;44.67;19.67;;;;;;;;;;5033137;28;20049;-70
2023/01/16 06:25:22;;;;;;;46.78;17.88;;;;;;;;;;5032456;28;20052;-71
2023/01/16 06:27:49;;;;;;;42.60;17.98;;;4.70;99.90;;;;;;5032661;28;20444;-71
2023/01/16 06:30:16;;;;;;;49.42;18.55;;;;;;;;;;5032433;28;20046;-71
2023/01/16 06:32:42;;;;;;;51.08;17.13;;;;;;;;;;5015660;28;20049;-71
2023/01/16 06:35:08;;;;;;;41.75;19.00;;;;;;;;;;5032712;28;20045;-71
2023/01/16 06:37:34;;;;;;;41.88;17.92;;;;;;;;;;5032555;28;20033;-70
2023/01/16 06:40:01;;;;;;;54.42;18.52;;;;;;;;;;5000012;28;20041;-71
2023/01/16 06:42:27;;;;;;;39.95;17.42;;;;;;;;;;5032425;28;20485;-71
2023/01/16 06:44:53;;;;;;;38.25;17.05;;;;;;;;;;5032825;28;20042;-71
2023/01/16 06:47:20;;;;;;;44.88;18.10;;;;;;;;;;5032276;28;20093;-71
2023/01/16 06:49:46;;;;;;;40.65;17.65;;;;;;;;;;5032503;28;20064;-71
2023/01/16 06:52:12;;;;;;;44.35;18.38;;;;;;;;;;5032057;28;20481;-71
2023/01/16 06:54:38;;;;;;;48.28;17.98;;;;;;;;;;4999609;28;20076;-71
2023/01/16 06:57:05;;;;;;;38.03;16.45;;;;;;;;;;5032033;28;20132;-71
2023/01/16 06:59:31;;;;;;;40.90;17.08;;;;;;;;;;5032160;28;20073;-71
2023/01/16 07:01:57;;;;;;;43.50;17.45;;;;;;;;;;5030916;28;20077;-71
2023/01/16 07:04:23;;;;;;;45.70;16.08;;;;;;;;;;5032237;28;20557;-71
2023/01/16 07:06:50;;;;;;;38.33;16.58;;;;;;;;;;5032151;28;20095;-71
2023/01/16 07:09:17;;;;;;;41.70;16.27;;;;;;;;;;5031921;28;20045;-71
2023/01/16 07:11:43;;;;;;;34.47;15.80;;;;;;;;;;5032182;28;20099;-70
2023/01/16 07:22:38;;;;;;;44.78;16.17;;;;;;;;;;5031908;28;20049;-72
2023/01/16 07:25:09;;;;;;;36.38;15.10;;;4.50;99.90;;;;;;5015594;28;20041;-72
2023/01/16 07:27:35;;;;;;;46.35;17.60;;;;;;;;;;5031339;28;20048;-72
2023/01/16 07:30:01;;;;;;;37.00;15.82;;;;;;;;;;5031645;28;20073;-72
2023/01/16 07:32:27;;;;;;;36.40;16.05;;;;;;;;;;5033425;28;20477;-72
2023/01/16 07:34:53;;;;;;;40.08;15.80;;;;;;;;;;5031201;28;20042;-75
2023/01/16 07:37:19;;;;;;;36.67;14.75;;;;;;;;;;5031405;28;20494;-76
2023/01/16 07:39:45;;;;;;;36.72;14.23;;;;;;;;;;5032229;28;20444;-77
2023/01/16 07:42:11;;;;;;;37.03;13.85;;;;;;;;;;5031899;28;20048;-77
2023/01/16 07:44:37;;;;;;;37.80;13.88;;;;;;;;;;5031470;28;20038;-78
2023/01/16 07:47:03;;;;;;;31.85;12.25;;;;;;;;;;5014844;28;20137;-77
2023/01/16 07:49:29;;;;;;;35.13;12.68;;;;;;;;;;5015096;28;20072;-78
2023/01/16 07:51:56;;;;;;;33.80;12.52;;;;;;;;;;5031654;28;20116;-78
2023/01/16 07:54:23;;;;;;;25.85;11.65;;;;;;;;;;5031438;28;20041;-79
2023/01/16 07:56:49;;;;;;;24.88;10.68;;;;;;;;;;5031819;28;20568;-77
2023/01/16 07:59:15;;;;;;;29.90;12.65;;;;;;;;;;5031318;28;20046;-78
2023/01/16 08:01:42;;;;;;;29.88;12.05;;;;;;;;;;5031266;28;20045;-78
2023/01/16 08:04:08;;;;;;;24.58;10.75;;;;;;;;;;5031044;28;20041;-78
2023/01/16 08:06:34;;;;;;;35.35;10.90;;;;;;;;;;5014845;28;20527;-78
2023/01/16 08:09:00;;;;;;;29.67;11.10;;;;;;;;;;5031522;28;20033;-78
2023/01/16 08:11:35;;;;;;;30.02;10.27;;;;;;;;;;5031337;28;20041;-78
2023/01/16 08:14:05;;;;;;;31.38;8.90;;;4.40;99.90;;;;;;5035255;28;20095;-78
2023/01/16 08:16:32;;;;;;;22.55;8.80;;;;;;;;;;5035288;28;20045;-78
2023/01/16 08:19:01;;;;;;;21.13;8.70;;;;;;;;;;5035882;28;20037;-78
2023/01/16 08:21:30;;;;;;;25.20;8.85;;;;;;;;;;5035347;28;20397;-77
2023/01/16 08:23:56;;;;;;;29.92;10.85;;;;;;;;;;5018582;28;20401;-77
2023/01/16 08:26:22;;;;;;;26.55;9.20;;;;;;;;;;5018127;28;20049;-78
2023/01/16 08:28:48;;;;;;;23.33;8.77;;;;;;;;;;5018108;28;20504;-78
2023/01/16 08:31:15;;;;;;;21.58;7.93;;;;;;;;;;5034907;28;20140;-78
2023/01/16 08:33:43;;;;;;;22.35;8.05;;;;;;;;;;5034552;28;20077;-78
2023/01/16 08:36:10;;;;;;;18.95;7.40;;;;;;;;;;5034793;28;20041;-77
2023/01/16 08:38:36;;;;;;;17.50;6.80;;;;;;;;;;5034854;28;20457;-77
2023/01/16 08:41:03;;;;;;;19.70;8.35;;;;;;;;;;5016634;28;20137;-77
2023/01/16 08:51:58;;;;;;;17.05;7.00;;;4.20;99.90;;;;;;5043748;28;20045;-77
2023/01/16 08:54:24;;;;;;;28.55;8.20;;;;;;;;;;5038940;28;20037;-77
2023/01/16 08:56:50;;;;;;;27.10;7.72;;;;;;;;;;5044981;28;20049;-77
2023/01/16 08:59:16;;;;;;;21.00;7.43;;;;;;;;;;5017971;28;20128;-77
2023/01/16 09:01:42;;;;;;;23.55;8.35;;;;;;;;;;5034713;28;20040;-77
2023/01/16 09:04:09;;;;;;;21.83;7.75;;;;;;;;;;5034810;28;20041;-77
2023/01/16 09:06:37;;;;;;;25.08;8.07;;;;;;;;;;5034210;28;20037;-76
2023/01/16 09:09:07;;;;;;;19.10;8.00;;;;;;;;;;5017707;28;20037;-78
2023/01/16 09:14:18;;;;;;;26.83;9.02;;;;;;;;;;5032799;28;20041;-78
2023/01/16 09:16:45;;;;;;;21.80;8.10;;;;;;;;;;5017131;28;20107;-77
2023/01/16 09:19:11;;;;;;;21.70;8.82;;;;;;;;;;5034485;28;20042;-78
2023/01/16 09:21:37;;;;;;;24.55;9.30;;;;;;;;;;5034350;28;20508;-78
2023/01/16 09:24:03;;;;;;;16.73;7.43;;;;;;;;;;5036011;28;20048;-77
2023/01/16 09:26:30;;;;;;;16.42;7.95;;;;;;;;;;5001048;28;20037;-78
2023/01/16 09:28:56;;;;;;;29.88;8.35;;;;;;;;;;5033894;28;20132;-77
2023/01/16 09:31:22;;;;;;;23.25;7.93;;;;;;;;;;5017314;28;20045;-77
2023/01/16 09:33:49;;;;;;;28.88;9.48;;;;;;;;;;5000757;28;20482;-77
2023/01/16 09:36:15;;;;;;;22.05;8.13;;;;;;;;;;5017144;28;20038;-77
2023/01/16 09:38:41;;;;;;;20.90;8.55;;;;;;;;;;5033766;28;20033;-77
2023/01/16 09:43:35;;;;;;;21.88;8.23;;;4.50;99.90;;;;;;5033593;28;20140;-77
2023/01/16 09:44:00;;;;;;;21.77;8.48;;;;;;;;;;5035958;28;20102;-77
2023/01/16 09:46:27;;;;;;;19.77;8.80;;;;;;;;;;5037460;28;20084;-76
2023/01/16 09:49:02;;;;;;;18.42;8.55;;;;;;;;;;5037920;28;20155;-76
2023/01/16 09:51:31;;;;;;;19.73;8.20;;;;;;;;;;5038576;28;20140;-77
2023/01/16 09:59:41;;;;;;;19.40;8.05;;;;;;;;;;5033390;28;20547;-77
2023/01/16 10:02:25;;;;;;;26.52;8.65;;;;;;;;;;5033911;28;20048;-77
2023/01/16 10:04:54;;;;;;;17.55;7.60;;;4.50;99.90;;;;;;5033282;28;20124;-77
2023/01/16 10:07:20;;;;;;;18.42;8.27;;;;;;;;;;5016925;28;20045;-77
2023/01/16 10:09:49;;;;;;;21.45;7.80;;;;;;;;;;5033375;28;20401;-77
2023/01/16 10:12:15;;;;;;;17.55;7.82;;;;;;;;;;5033522;28;20038;-77
2023/01/16 10:14:53;;;;;;;19.13;7.68;;;4.80;99.90;;;;;;5033178;28;20041;-77
2023/01/16 10:18:02;;;;;;;16.98;7.90;;;4.80;99.90;;;;;;5016916;28;20046;-77
2023/01/16 10:20:34;;;;;;;18.92;7.88;;;;;;;;;;5016406;28;20505;-77
2023/01/16 10:23:17;;;;;;;18.70;8.00;;;4.50;99.90;;;;;;5032914;28;20049;-77
2023/01/16 10:25:44;;;;;;;20.63;8.13;;;;;;;;;;5016455;28;20115;-77
2023/01/16 10:28:28;;;;;;;17.10;7.45;;;;;;;;;;5032529;28;20053;-77
2023/01/16 10:31:02;;;;;;;15.32;6.95;;;;;;;;;;5032984;28;20041;-76
2023/01/16 10:33:49;;;;;;;19.20;7.18;;;4.80;99.90;;;;;;5032862;28;20073;-75
2023/01/16 10:36:18;;;;;;;22.13;7.00;;;4.50;99.90;;;;;;5032659;28;20132;-77
2023/01/16 10:38:56;;;;;;;18.58;7.45;;;4.80;99.90;;;;;;5032744;28;20437;-77
2023/01/16 10:49:49;;;;;;;16.10;6.60;;;;;;;;;;5033484;28;20088;-76
2023/01/16 10:52:15;;;;;;;17.77;6.78;;;;;;;;;;5013847;28;20045;-76
2023/01/16 10:54:41;;;;;;;17.38;7.68;;;;;;;;;;5028286;28;20036;-76
2023/01/16 10:57:15;;;;;;;17.23;6.10;;;4.50;99.90;;;;;;5015876;28;20044;-75
2023/01/16 10:59:44;;;;;;;14.52;6.10;;;4.50;99.90;;;;;;5032317;28;20045;-76
2023/01/16 11:02:22;;;;;;;12.70;5.63;;;4.70;99.90;;;;;;5032563;28;20060;-71
2023/01/16 11:04:48;;;;;;;14.43;5.38;;;;;;;;;;5032057;28;20123;-71
2023/01/16 11:07:19;;;;;;;9.02;5.70;;;;;;;;;;5031899;28;20034;-70
2023/01/16 11:09:46;;;;;;;11.50;5.38;;;;;;;;;;5031981;28;20132;-72
2023/01/16 11:20:44;;;;;;;7.05;4.35;;;;;;;;;;5031478;28;20053;-71
2023/01/16 11:23:25;;;;;;;6.65;3.90;;;4.50;99.90;;;;;;5032169;28;20041;-71
2023/01/16 11:25:54;;;;;;;8.85;4.03;;;4.40;99.90;;;;;;5015328;28;20037;-71
2023/01/16 11:28:32;;;;;;;9.38;3.83;;;;;;;;;;5031903;28;20087;-71
2023/01/16 11:31:02;;;;;;;7.18;4.18;;;4.40;99.90;;;;;;5014977;28;20052;-70
2023/01/16 11:33:34;;;;;;;8.55;3.80;;;;;;;;;;5031571;28;20052;-71
2023/01/16 11:36:02;;;;;;;7.03;4.07;;;4.30;99.90;;;;;;5048328;28;20042;-71
2023/01/16 11:38:29;;;;;;;5.53;3.40;;;4.30;99.90;;;;;;5015200;28;20042;-71
2023/01/16 11:40:57;;;;;;;6.97;3.35;;;;;;;;;;5031435;28;20048;-71
2023/01/16 11:46:24;;;;;;;4.18;3.10;;;;;;;;;;5031387;28;20048;-70
2023/01/16 11:48:55;;;;;;;4.63;3.10;;;;;;;;;;5037728;28;20091;-70
2023/01/16 11:51:25;;;;;;;6.18;3.10;;;;;;;;;;5043016;28;20114;-71
2023/01/16 11:53:53;;;;;;;4.32;3.25;;;4.20;99.90;;;;;;5058258;28;20100;-70
2023/01/16 11:56:37;;;;;;;6.18;3.53;;;;;;;;;;5043755;28;20037;-70
2023/01/16 11:59:07;;;;;;;4.40;3.20;;;;;;;;;;5061665;28;20102;-70
2023/01/16 12:02:15;;;;;;;2.83;2.53;;;;;;;;;;5057200;28;20503;-71
2023/01/16 12:04:25;;;;;;;4.72;2.75;;;;;;;;;;5059982;28;20042;-70
2023/01/16 12:06:54;;;;;;;;;;;4.00;99.90;;;;;;5023888;28;20038;-70
2023/01/16 12:09:59;;;;;;;4.05;2.85;;;4.20;99.90;;;;;;5044261;28;19917;-70
2023/01/16 12:15:19;;;;;;;4.38;2.95;;;;;;;;;;5043338;28;20389;-70
2023/01/16 12:17:48;;;;;;;6.03;2.88;;;;;;;;;;5041125;28;20520;-70
2023/01/16 12:20:20;;;;;;;6.25;3.17;;;;;;;;;;5028162;28;20071;-70
2023/01/16 12:22:52;;;;;;;6.38;3.45;;;;;;;;;;5064468;28;20075;-70
2023/01/16 12:25:25;;;;;;;4.93;2.88;;;;;;;;;;5054666;28;20132;-70
2023/01/16 12:27:51;;;;;;;;;;;;;;;;;;5037269;28;20049;-70
2023/01/16 12:31:07;;;;;;;5.25;3.17;;;4.20;99.90;;;;;;5034900;28;19917;-70
2023/01/16 12:34:07;;;;;;;3.67;3.35;;;4.30;99.90;;;;;;5034722;28;20095;-70
2023/01/16 12:36:39;;;;;;;8.50;4.00;;;;;;;;;;5011590;28;20057;-70
2023/01/16 12:39:20;;;;;;;4.72;3.72;;;;;;;;;;5034733;28;20104;-71
2023/01/16 12:45:07;;;;;;;4.97;3.75;;;;;;;;;;5034258;28;20124;-70
2023/01/16 12:47:42;;;;;;;6.47;4.15;;;;;;;;;;5033802;28;20509;-70
2023/01/16 12:50:23;;;;;;;5.20;3.92;;;;;;;;;;5034356;28;20049;-71
2023/01/16 12:52:55;;;;;;;7.20;4.13;;;;;;;;;;5047423;28;20076;-70
2023/01/16 12:55:29;;;;;;;4.90;4.13;;;;;;;;;;5057592;28;20040;-70
2023/01/16 12:58:23;;;;;;;4.80;3.85;;;4.10;99.90;;;;;;5022913;28;20098;-70
2023/01/16 13:00:55;;;;;;;7.80;5.03;;;;;;;;;;5043053;28;20401;-71
2023/01/16 13:03:24;;;;;;;5.65;4.00;;;;;;;;;;5025174;28;20091;-71
2023/01/16 13:05:53;;;;;;;6.03;4.13;;;;;;;;;;5044405;28;20064;-71
2023/01/16 13:09:00;;;;;;;6.78;4.57;;;4.00;99.90;;;;;;5041036;28;20037;-71
2023/01/16 13:14:18;;;;;;;6.38;5.00;;;4.20;99.90;;;;;;5060828;28;20434;-71
2023/01/16 13:16:51;;;;;;;6.43;4.60;;;4.10;99.90;;;;;;5025091;28;20041;-70
2023/01/16 13:19:17;;;;;;;;;;;;;;;;;;5042951;28;20087;-70
2023/01/16 13:21:55;;;;;;;8.32;5.63;;;;;;;;;;5041908;28;19946;-70
2023/01/16 13:24:22;;;;;;;11.68;5.55;;;;;;;;;;5049653;28;20120;-71
2023/01/16 13:26:54;;;;;;;8.55;5.47;;;;;;;;;;5031209;28;20049;-70
2023/01/16 13:29:26;;;;;;;7.97;5.70;;;;;;;;;;5033316;28;20099;-71
2023/01/16 13:32:12;;;;;;;11.25;5.22;;;4.30;99.90;;;;;;5033747;28;20389;-70
2023/01/16 13:34:49;;;;;;;10.18;5.50;;;;;;;;;;5017071;28;20052;-71
2023/01/16 13:37:18;;;;;;;7.40;5.20;;;;;;;;;;5033408;28;20079;-71
2023/01/16 13:39:59;;;;;;;6.43;5.15;;;4.40;99.90;;;;;;5033609;28;20048;-71
2023/01/16 13:42:25;;;;;;;9.98;5.43;;;;;;;;;;5016819;28;20046;-72
2023/01/16 13:47:47;;;;;;;7.47;5.30;;;;;;;;;;5032968;28;20421;-71
2023/01/16 13:50:25;;;;;;;9.18;5.55;;;4.30;99.90;;;;;;5016344;28;20041;-71
2023/01/16 13:52:55;;;;;;;10.32;5.65;;;4.50;99.90;;;;;;5039520;28;20037;-71
2023/01/16 13:55:40;;;;;;;8.70;6.25;;;;;;;;;;5033292;28;20535;-71
2023/01/16 13:58:14;;;;;;;9.38;5.80;;;;;;;;;;5032942;28;20120;-71
2023/01/16 14:00:40;;;;;;;8.23;6.03;;;;;;;;;;5032983;28;20080;-71
2023/01/16 14:03:18;;;;;;;14.35;6.22;;;;;;;;;;5016885;28;20047;-71
2023/01/16 14:05:47;;;;;;;8.20;5.65;;;4.50;99.90;;;;;;5032843;28;20091;-71
2023/01/16 14:10:58;;;;;;;9.65;5.85;;;;;;;;;;5031901;28;20115;-71
2023/01/16 14:13:26;;;;;;;8.13;5.68;;;;;;;;;;5032481;28;20128;-71
2023/01/16 14:18:42;;;;;;;10.60;6.03;;;;;;;;;;5032909;28;20393;-71
2023/01/16 14:21:24;;;;;;;11.20;5.75;;;4.60;99.90;;;;;;5032499;28;20489;-71
2023/01/16 14:24:00;;;;;;;8.57;6.45;;;4.80;99.90;;;;;;5032892;28;20050;-71
2023/01/16 14:26:26;;;;;;;13.55;6.32;;;;;;;;;;5033093;28;20117;-75
2023/01/16 14:28:54;;;;;;;8.10;6.15;;;4.60;99.90;;;;;;5016291;28;20059;-75
2023/01/16 14:31:23;;;;;;;12.95;6.22;;;;;;;;;;5032646;28;20121;-75
2023/01/16 14:33:49;;;;;;;8.77;6.40;;;;;;;;;;5032748;28;20088;-75
2023/01/16 14:36:18;;;;;;;9.35;6.63;;;4.70;99.90;;;;;;5032564;28;20071;-75
2023/01/16 14:38:46;;;;;;;9.98;6.75;;;;;;;;;;5032401;28;20099;-75
2023/01/16 14:55:53;;;;;;;11.95;7.10;;;;;;;;;;5032117;28;20045;-75
2023/01/16 14:58:45;;;;;;;6.95;5.93;;;;;;;;;;5015250;28;20048;-75
2023/01/16 15:04:48;;;;;;;12.25;6.00;;;4.60;99.90;;;;;;5015988;28;20091;-70
2023/01/16 15:07:21;;;;;;;9.60;7.13;;;;;;;;;;5031983;28;20065;-75
2023/01/16 15:09:49;;;;;;;11.30;6.32;;;4.50;99.90;;;;;;5031977;28;20486;-75
2023/01/16 15:12:17;;;;;;;13.43;6.78;;;4.60;99.90;;;;;;5032086;28;20037;-75
2023/01/16 15:14:57;;;;;;;12.25;7.15;;;;;;;;;;5014686;28;20048;-75
2023/01/16 15:23:15;;;;;;;18.77;10.27;;;4.60;99.90;;;;;;5030911;28;20050;-75
2023/01/16 15:25:59;;;;;;;20.20;10.00;;;;;;;;;;5015446;28;20041;-75
2023/01/16 15:28:25;;;;;;;20.30;10.77;;;;;;;;;;5031838;28;20081;-75
2023/01/16 15:30:54;;;;;;;19.02;10.10;;;4.60;99.90;;;;;;5031960;28;20051;-75
2023/01/16 15:36:19;;;;;;;15.57;8.65;;;4.60;99.90;;;;;;5032010;28;20041;-75
2023/01/16 15:38:47;;;;;;;13.45;8.70;;;;;;;;;;5015099;28;20073;-75
2023/01/16 15:41:13;;;;;;;11.60;8.57;;;;;;;;;;5031885;28;20038;-75
2023/01/16 15:46:47;;;;;;;11.60;7.55;;;;;;;;;;5043844;28;20374;-75
2023/01/16 15:49:16;;;;;;;13.10;8.30;;;;;;;;;;5033380;28;20137;-75
2023/01/16 15:51:50;;;;;;;17.63;9.63;;;4.60;99.90;;;;;;5031864;28;20132;-75
2023/01/16 15:54:16;;;;;;;17.55;10.13;;;;;;;;;;5048349;28;20038;-75
2023/01/16 15:56:44;;;;;;;16.38;10.82;;;;;;;;;;5031834;28;20042;-75